Beaman, Iowa
Current Conditions -  °F | °C
As of 7:53 PM on Thursday 18 Dec 2014 (Local Time) from KMIW Reporting Station
Overcast Overcast  
Wind Chill: 18°   Ceiling: 5000
Heat Index: 24°   Visibility: 10mi
Dew Point: 19°   Wind: 5mph
Humidity: 81%   Direction: 90°E
Pressure: 30.25"   Gusts: NA
Location:  42.22°N, 92.82°W
Report Text: KMIW 190153Z AUTO 09004KT 10SM FEW039 OVC050 M04/M07 A3025 RMK AO2 SLP260 T10441072
Loading
Personal Weather Stations






























Interactive Weather Map New forecast layout! Learn more

10-Day Weather Forecast

Advertisements
Track Severe Weather on mobile